createdAt,value
2023-05-21T00:01:25.911Z,97915.75
2023-05-21T00:03:53.393Z,97915.81
2023-05-21T00:06:21.212Z,97915.44
2023-05-21T00:08:47.778Z,97912.56
2023-05-21T00:11:14.387Z,97911.44
2023-05-21T00:13:41.517Z,97911.31
2023-05-21T00:16:08.102Z,97908.47
2023-05-21T00:18:34.708Z,97907.28
2023-05-21T00:21:01.783Z,97910.28
2023-05-21T00:23:28.464Z,97907.53
2023-05-21T00:25:55.443Z,97894.63
2023-05-21T00:28:22.028Z,97894.28
2023-05-21T00:30:49.506Z,97897.81
2023-05-21T00:33:16.176Z,97889.59
2023-05-21T00:35:42.777Z,97888.16
2023-05-21T00:38:09.422Z,97885.03
2023-05-21T00:40:36.324Z,97886.06
2023-05-21T00:43:03.415Z,97886.69
2023-05-21T00:45:30.110Z,97876.78
2023-05-21T00:47:56.820Z,97879.06
2023-05-21T00:50:23.537Z,97880.81
2023-05-21T00:52:50.185Z,97875.34
2023-05-21T00:55:16.784Z,97878.97
2023-05-21T00:57:45.940Z,97867.28
2023-05-21T01:00:14.534Z,97873.41
2023-05-21T01:02:42.087Z,97871.38
2023-05-21T01:05:09.637Z,97871.06
2023-05-21T01:07:38.955Z,97874.53
2023-05-21T01:10:07.918Z,97869.22
2023-05-21T01:12:35.522Z,97870.59
2023-05-21T01:15:05.787Z,97872.03
2023-05-21T01:17:34.220Z,97869.28
2023-05-21T01:20:01.676Z,97867.28
2023-05-21T01:22:29.295Z,97862.09
2023-05-21T01:24:55.857Z,97867.34
2023-05-21T01:27:22.927Z,97875.81
2023-05-21T01:29:50.148Z,97867.28
2023-05-21T01:32:52.079Z,97865.56
2023-05-21T01:35:43.036Z,97868.03
2023-05-21T01:38:17.692Z,97872.50
2023-05-21T01:40:58.769Z,97862.41
2023-05-21T01:43:27.325Z,97863.69
2023-05-21T01:45:56.005Z,97861.59
2023-05-21T01:48:24.144Z,97870.22
2023-05-21T01:50:51.417Z,97861.69
2023-05-21T01:53:18.115Z,97860.31
2023-05-21T01:55:45.901Z,97857.34
2023-05-21T01:58:12.491Z,97853.06
2023-05-21T02:00:40.015Z,97852.50
2023-05-21T02:03:07.289Z,97848.88
2023-05-21T02:05:34.639Z,97854.50
2023-05-21T02:08:01.395Z,97852.31
2023-05-21T02:10:28.327Z,97853.50
2023-05-21T02:12:55.337Z,97849.16
2023-05-21T02:15:22.397Z,97860.59
2023-05-21T02:17:51.484Z,97852.56
2023-05-21T02:20:18.153Z,97845.81
2023-05-21T02:22:46.897Z,97850.00
2023-05-21T02:25:16.685Z,97852.00
2023-05-21T02:27:43.625Z,97852.47
2023-05-21T02:30:11.742Z,97842.56
2023-05-21T02:32:43.018Z,97843.94
2023-05-21T02:35:12.201Z,97838.31
2023-05-21T02:37:40.428Z,97847.88
2023-05-21T02:40:08.090Z,97838.75
2023-05-21T02:42:34.656Z,97846.50
2023-05-21T02:45:01.286Z,97845.50
2023-05-21T02:47:28.489Z,97843.28
2023-05-21T02:49:55.118Z,97846.94
2023-05-21T02:52:24.448Z,97842.75
2023-05-21T02:54:52.306Z,97843.38
2023-05-21T02:57:19.258Z,97843.69
2023-05-21T02:59:46.102Z,97843.69
2023-05-21T03:04:46.227Z,97847.69
2023-05-21T03:07:14.231Z,97843.00
2023-05-21T03:09:42.006Z,97841.16
2023-05-21T03:12:09.197Z,97835.53
2023-05-21T03:14:35.804Z,97827.00
2023-05-21T03:17:05.884Z,97827.06
2023-05-21T03:19:35.778Z,97825.72
2023-05-21T03:22:04.573Z,97828.19
2023-05-21T03:24:35.211Z,97828.19
2023-05-21T03:27:02.271Z,97828.25
2023-05-21T03:29:28.945Z,97831.06
2023-05-21T03:31:56.237Z,97832.25
2023-05-21T03:34:23.295Z,97829.00
2023-05-21T03:36:50.592Z,97828.00
2023-05-21T03:39:18.498Z,97830.28
2023-05-21T03:41:45.376Z,97820.81
2023-05-21T03:44:19.868Z,97825.91
2023-05-21T03:46:53.684Z,97826.63
2023-05-21T03:49:26.841Z,97827.28
2023-05-21T03:51:55.870Z,97824.38
2023-05-21T03:54:23.549Z,97825.09
2023-05-21T03:56:53.070Z,97829.09
2023-05-21T03:59:20.169Z,97828.66
2023-05-21T04:01:47.539Z,97827.63
2023-05-21T04:04:16.697Z,97841.19
2023-05-21T04:06:43.358Z,97833.09
2023-05-21T04:09:11.090Z,97848.97
2023-05-21T04:11:37.969Z,97842.16
2023-05-21T04:14:04.728Z,97844.00
2023-05-21T04:16:31.356Z,97846.25
2023-05-21T04:18:57.917Z,97850.25
2023-05-21T04:21:26.617Z,97854.41
2023-05-21T04:23:54.138Z,97864.75
2023-05-21T04:26:34.247Z,97859.59
2023-05-21T04:29:04.933Z,97857.41
2023-05-21T04:31:34.807Z,97869.56
2023-05-21T04:34:02.820Z,97866.59
2023-05-21T04:36:30.186Z,97863.69
2023-05-21T04:38:57.020Z,97868.03
2023-05-21T04:41:23.577Z,97868.66
2023-05-21T04:43:54.864Z,97869.22
2023-05-21T04:46:25.411Z,97878.75
2023-05-21T04:48:55.594Z,97872.59
2023-05-21T04:51:24.774Z,97878.75
2023-05-21T04:53:52.009Z,97880.13
2023-05-21T04:56:20.860Z,97876.13
2023-05-21T04:58:48.179Z,97878.22
2023-05-21T05:01:15.451Z,97880.13
2023-05-21T05:03:42.556Z,97878.94
2023-05-21T05:06:09.162Z,97885.84
2023-05-21T05:08:36.141Z,97887.84
2023-05-21T05:11:03.489Z,97876.78
2023-05-21T05:13:30.104Z,97878.03
2023-05-21T05:15:57.338Z,97887.66
2023-05-21T05:18:24.413Z,97890.28
2023-05-21T05:20:51.071Z,97889.38
2023-05-21T05:23:17.668Z,97879.50
2023-05-21T05:25:44.287Z,97880.94
2023-05-21T05:28:10.868Z,97875.59
2023-05-21T05:30:37.561Z,97887.03
2023-05-21T05:33:16.739Z,97884.22
2023-05-21T05:35:43.519Z,97878.41
2023-05-21T05:38:10.442Z,97885.84
2023-05-21T05:40:37.369Z,97877.22
2023-05-21T05:43:03.946Z,97877.84
2023-05-21T05:45:30.540Z,97877.03
2023-05-21T05:47:57.322Z,97886.63
2023-05-21T05:50:23.961Z,97880.94
2023-05-21T05:52:51.210Z,97886.19
2023-05-21T05:55:18.093Z,97874.03
2023-05-21T05:57:45.174Z,97884.31
2023-05-21T06:00:15.100Z,97882.19
2023-05-21T06:02:48.192Z,97883.38
2023-05-21T06:05:15.500Z,97881.19
2023-05-21T06:07:42.174Z,97884.38
2023-05-21T06:10:09.038Z,97888.34
2023-05-21T06:12:35.681Z,97880.00
2023-05-21T06:15:02.338Z,97887.16
2023-05-21T06:17:29.903Z,97881.44
2023-05-21T06:19:56.615Z,97890.03
2023-05-21T06:22:25.674Z,97890.53
2023-05-21T06:24:52.548Z,97889.81
2023-05-21T06:27:19.231Z,97885.13
2023-05-21T06:29:46.226Z,97881.88
2023-05-21T06:32:13.266Z,97882.41
2023-05-21T06:34:41.019Z,97889.56
2023-05-21T06:37:07.687Z,97886.13
2023-05-21T06:39:34.261Z,97884.44
2023-05-21T06:42:00.964Z,97880.88
2023-05-21T06:44:46.179Z,97885.16
2023-05-21T06:47:27.422Z,97896.31
2023-05-21T06:49:54.115Z,97885.09
2023-05-21T06:52:21.285Z,97895.22
2023-05-21T06:54:48.328Z,97890.22
2023-05-21T06:57:16.319Z,97889.81
2023-05-21T06:59:43.186Z,97896.81
2023-05-21T07:02:10.052Z,97894.47
2023-05-21T07:04:36.838Z,97896.78
2023-05-21T07:07:04.587Z,97898.78
2023-05-21T07:09:31.732Z,97899.44
2023-05-21T07:11:58.425Z,97899.34
2023-05-21T07:14:25.795Z,97900.53
2023-05-21T07:16:52.855Z,97902.31
2023-05-21T07:19:19.571Z,97899.41
2023-05-21T07:21:46.313Z,97900.63
2023-05-21T07:24:12.949Z,97904.03
2023-05-21T07:26:40.524Z,97902.09
2023-05-21T07:29:07.307Z,97900.44
2023-05-21T07:31:34.045Z,97906.56
2023-05-21T07:34:01.049Z,97897.50
2023-05-21T07:36:31.074Z,97904.75
2023-05-21T07:38:58.330Z,97901.34
2023-05-21T07:41:24.940Z,97910.50
2023-05-21T07:43:51.598Z,97899.59
2023-05-21T07:46:18.234Z,97894.81
2023-05-21T07:48:48.371Z,97894.50
2023-05-21T07:51:15.154Z,97892.81
2023-05-21T07:53:41.777Z,97897.53
2023-05-21T07:56:11.260Z,97899.28
2023-05-21T07:58:39.386Z,97895.97
2023-05-21T08:01:06.281Z,97896.03
2023-05-21T08:03:33.007Z,97900.81
2023-05-21T08:05:59.652Z,97902.84
2023-05-21T08:08:26.584Z,97895.75
2023-05-21T08:10:56.138Z,97898.88
2023-05-21T08:13:25.048Z,97897.69
2023-05-21T08:15:53.411Z,97897.94
2023-05-21T08:18:23.671Z,97899.16
2023-05-21T08:20:51.654Z,97899.16
2023-05-21T08:23:19.775Z,97894.13
2023-05-21T08:25:50.652Z,97895.63
2023-05-21T08:28:17.347Z,97888.09
2023-05-21T08:30:43.936Z,97892.38
2023-05-21T08:33:11.197Z,97894.53
2023-05-21T08:35:38.572Z,97894.69
2023-05-21T08:38:31.351Z,97894.84
2023-05-21T08:41:24.196Z,97905.56
2023-05-21T08:43:56.792Z,97897.88
2023-05-21T08:46:24.995Z,97901.50
2023-05-21T08:48:54.945Z,97902.31
2023-05-21T08:51:22.158Z,97899.13
2023-05-21T08:53:51.447Z,97889.16
2023-05-21T08:56:20.122Z,97889.03
2023-05-21T08:58:53.100Z,97903.88
2023-05-21T09:01:24.142Z,97893.53
2023-05-21T09:04:12.202Z,97894.09
2023-05-21T09:06:46.984Z,97898.25
2023-05-21T09:09:34.167Z,97903.81
2023-05-21T09:12:01.157Z,97909.00
2023-05-21T09:14:27.858Z,97905.28
2023-05-21T09:17:12.955Z,97908.31
2023-05-21T09:19:41.076Z,97904.38
2023-05-21T09:22:07.651Z,97909.72
2023-05-21T09:24:36.222Z,97897.88
2023-05-21T09:27:05.602Z,97907.09
2023-05-21T09:29:33.851Z,97902.59
2023-05-21T09:32:05.825Z,97909.28
2023-05-21T09:34:35.795Z,97896.81
2023-05-21T09:37:02.475Z,97896.22
2023-05-21T09:39:30.246Z,97890.84
2023-05-21T09:42:00.442Z,97900.28
2023-05-21T09:44:27.065Z,97897.78
2023-05-21T09:46:57.930Z,97894.09
2023-05-21T09:49:25.060Z,97895.94
2023-05-21T09:51:56.063Z,97893.41
2023-05-21T09:54:24.057Z,97890.47
2023-05-21T09:56:53.669Z,97890.84
2023-05-21T09:59:20.269Z,97885.72
2023-05-21T10:01:46.766Z,97887.56
2023-05-21T10:04:13.330Z,97888.28
2023-05-21T10:06:43.225Z,97893.41
2023-05-21T10:09:10.573Z,97891.78
2023-05-21T10:11:37.319Z,97889.47
2023-05-21T10:14:07.892Z,97880.22
2023-05-21T10:16:34.870Z,97880.88
2023-05-21T10:19:01.452Z,97885.34
2023-05-21T10:21:28.161Z,97885.44
2023-05-21T10:23:56.501Z,97884.16
2023-05-21T10:26:23.549Z,97878.25
2023-05-21T10:28:51.002Z,97875.50
2023-05-21T10:31:17.994Z,97885.31
2023-05-21T10:33:44.418Z,97872.81
2023-05-21T10:36:11.274Z,97878.13
2023-05-21T10:38:37.750Z,97880.75
2023-05-21T10:41:05.163Z,97887.03
2023-05-21T10:43:38.664Z,97875.97
2023-05-21T10:46:20.506Z,97876.94
2023-05-21T10:48:53.819Z,97879.66
2023-05-21T10:51:20.336Z,97868.28
2023-05-21T10:54:04.665Z,97870.41
2023-05-21T10:56:50.040Z,97874.13
2023-05-21T10:59:22.157Z,97868.16
2023-05-21T11:01:49.377Z,97877.53
2023-05-21T11:04:17.432Z,97868.75
2023-05-21T11:06:47.729Z,97864.06
2023-05-21T11:09:14.533Z,97866.31
2023-05-21T11:11:46.041Z,97866.84
2023-05-21T11:14:32.545Z,97866.69
2023-05-21T11:16:59.651Z,97861.88
2023-05-21T11:19:34.190Z,97864.28
2023-05-21T11:22:00.842Z,97862.97
2023-05-21T11:24:28.298Z,97863.88
2023-05-21T11:26:58.489Z,97862.34
2023-05-21T11:29:31.730Z,97864.09
2023-05-21T11:32:05.691Z,97868.84
2023-05-21T11:34:39.387Z,97865.41
2023-05-21T11:37:25.659Z,97863.78
2023-05-21T11:39:52.152Z,97858.03
2023-05-21T11:42:34.700Z,97860.50
2023-05-21T11:45:02.106Z,97859.72
2023-05-21T11:47:28.891Z,97849.34
2023-05-21T11:49:56.368Z,97859.38
2023-05-21T11:52:23.208Z,97857.00
2023-05-21T11:54:55.380Z,97857.63
2023-05-21T11:57:22.133Z,97855.50
2023-05-21T11:59:49.486Z,97854.16
2023-05-21T12:02:16.871Z,97854.22
2023-05-21T12:04:43.314Z,97850.91
2023-05-21T12:07:11.670Z,97857.66
2023-05-21T12:09:41.756Z,97854.91
2023-05-21T12:12:08.619Z,97859.47
2023-05-21T12:14:35.547Z,97859.09
2023-05-21T12:17:05.625Z,97862.75
2023-05-21T12:19:33.349Z,97857.44
2023-05-21T12:22:04.095Z,97849.81
2023-05-21T12:24:30.978Z,97848.97
2023-05-21T12:27:01.432Z,97853.25
2023-05-21T12:29:32.178Z,97856.41
2023-05-21T12:32:02.223Z,97855.59
2023-05-21T12:34:46.098Z,97847.50
2023-05-21T12:37:12.567Z,97852.09
2023-05-21T12:39:39.607Z,97851.94
2023-05-21T12:42:06.291Z,97853.41
2023-05-21T12:44:33.470Z,97853.50
2023-05-21T12:47:01.600Z,97853.66
2023-05-21T12:49:35.198Z,97852.41
2023-05-21T12:52:05.809Z,97854.47
2023-05-21T12:54:33.474Z,97854.25
2023-05-21T12:57:05.923Z,97858.72
2023-05-21T12:59:45.724Z,97850.88
2023-05-21T13:02:28.697Z,97848.19
2023-05-21T13:04:59.240Z,97850.31
2023-05-21T13:07:26.616Z,97854.13
2023-05-21T13:09:53.494Z,97852.66
2023-05-21T13:12:23.435Z,97849.56
2023-05-21T13:14:50.240Z,97853.72
2023-05-21T13:17:17.425Z,97856.25
2023-05-21T13:19:46.566Z,97854.13
2023-05-21T13:22:12.981Z,97846.69
2023-05-21T13:24:39.833Z,97844.44
2023-05-21T13:27:06.539Z,97852.16
2023-05-21T13:29:32.996Z,97850.94
2023-05-21T13:32:01.237Z,97852.09
2023-05-21T13:34:27.890Z,97844.09
2023-05-21T13:36:54.342Z,97845.38
2023-05-21T13:39:26.658Z,97852.69
2023-05-21T13:41:53.196Z,97844.91
2023-05-21T13:44:19.679Z,97851.75
2023-05-21T13:46:46.199Z,97851.41
2023-05-21T13:49:12.685Z,97850.69
2023-05-21T13:51:39.536Z,97842.81
2023-05-21T13:54:06.312Z,97845.69
2023-05-21T13:56:33.809Z,97845.19
2023-05-21T13:59:01.333Z,97845.09
2023-05-21T14:01:28.628Z,97847.88
2023-05-21T14:03:55.300Z,97854.09
2023-05-21T14:06:21.740Z,97847.16
2023-05-21T14:08:48.414Z,97851.50
2023-05-21T14:11:16.486Z,97858.31
2023-05-21T14:13:43.266Z,97847.53
2023-05-21T14:16:09.823Z,97853.75
2023-05-21T14:18:36.302Z,97847.66
2023-05-21T14:21:03.275Z,97848.22
2023-05-21T14:23:29.770Z,97852.31
2023-05-21T14:25:56.423Z,97847.28
2023-05-21T14:28:22.886Z,97848.81
2023-05-21T14:30:49.301Z,97845.13
2023-05-21T14:33:16.215Z,97845.31
2023-05-21T14:35:44.035Z,97849.09
2023-05-21T14:38:10.929Z,97839.34
2023-05-21T14:40:37.353Z,97840.84
2023-05-21T14:43:03.940Z,97842.06
2023-05-21T14:45:30.372Z,97841.16
2023-05-21T14:47:58.606Z,97839.81
2023-05-21T14:50:25.759Z,97827.94
2023-05-21T14:52:52.183Z,97822.31
2023-05-21T14:55:18.665Z,97826.47
2023-05-21T14:57:45.607Z,97824.94
2023-05-21T15:00:13.319Z,97821.50
2023-05-21T15:02:40.761Z,97823.78
2023-05-21T15:05:07.351Z,97825.72
2023-05-21T15:07:33.820Z,97825.00
2023-05-21T15:10:00.412Z,97820.38
2023-05-21T15:12:27.292Z,97821.41
2023-05-21T15:14:54.127Z,97815.47
2023-05-21T15:17:23.370Z,97829.63
2023-05-21T15:19:52.922Z,97822.56
2023-05-21T15:22:19.657Z,97823.16
2023-05-21T15:24:46.282Z,97818.31
2023-05-21T15:27:14.081Z,97819.03
2023-05-21T15:29:40.678Z,97808.56
2023-05-21T15:32:07.155Z,97814.91
2023-05-21T15:34:33.869Z,97807.97
2023-05-21T15:37:00.373Z,97809.63
2023-05-21T15:39:27.295Z,97805.75
2023-05-21T15:41:55.777Z,97810.31
2023-05-21T15:44:22.394Z,97810.31
2023-05-21T15:46:49.979Z,97800.28
2023-05-21T15:49:16.842Z,97799.66
2023-05-21T15:51:44.157Z,97800.50
2023-05-21T15:54:10.811Z,97803.03
2023-05-21T15:56:37.273Z,97803.84
2023-05-21T15:59:03.967Z,97807.56
2023-05-21T16:01:30.504Z,97808.28
2023-05-21T16:03:57.074Z,97814.66
2023-05-21T16:06:23.606Z,97812.16
2023-05-21T16:08:50.091Z,97811.84
2023-05-21T16:11:16.781Z,97815.72
2023-05-21T16:13:43.347Z,97807.28
2023-05-21T16:16:09.855Z,97817.28
2023-05-21T16:18:37.328Z,97807.31
2023-05-21T16:21:03.809Z,97819.19
2023-05-21T16:23:30.318Z,97818.94
2023-05-21T16:25:56.765Z,97813.44
2023-05-21T16:28:24.371Z,97815.88
2023-05-21T16:30:51.068Z,97800.94
2023-05-21T16:33:17.550Z,97807.88
2023-05-21T16:35:44.032Z,97808.00
2023-05-21T16:38:10.486Z,97812.81
2023-05-21T16:40:36.949Z,97801.41
2023-05-21T16:43:03.375Z,97805.81
2023-05-21T16:45:34.947Z,97806.50
2023-05-21T16:48:01.504Z,97806.44
2023-05-21T16:50:28.069Z,97805.88
2023-05-21T16:52:54.717Z,97800.34
2023-05-21T16:55:21.709Z,97805.31
2023-05-21T16:57:48.228Z,97795.25
2023-05-21T17:00:14.914Z,97798.13
2023-05-21T17:02:41.363Z,97799.13
2023-05-21T17:05:07.930Z,97803.75
2023-05-21T17:07:34.395Z,97804.81
2023-05-21T17:10:00.863Z,97796.91
2023-05-21T17:12:27.306Z,97805.41
2023-05-21T17:14:53.973Z,97799.84
2023-05-21T17:17:20.532Z,97794.84
2023-05-21T17:19:46.969Z,97794.06
2023-05-21T17:22:13.641Z,97795.50
2023-05-21T17:24:40.071Z,97797.06
2023-05-21T17:27:06.510Z,97795.91
2023-05-21T17:29:33.024Z,97798.78
2023-05-21T17:31:59.738Z,97795.31
2023-05-21T17:34:29.333Z,97802.97
2023-05-21T17:36:56.368Z,97804.06
2023-05-21T17:39:22.809Z,97802.66
2023-05-21T17:41:49.790Z,97806.09
2023-05-21T17:44:19.268Z,97814.50
2023-05-21T17:46:46.357Z,97812.78
2023-05-21T17:49:12.956Z,97813.03
2023-05-21T17:51:39.414Z,97812.63
2023-05-21T17:54:07.992Z,97817.50
2023-05-21T17:56:38.861Z,97816.50
2023-05-21T17:59:06.564Z,97812.47
2023-05-21T18:01:34.027Z,97814.78
2023-05-21T18:04:00.525Z,97815.63
2023-05-21T18:06:28.791Z,97815.63
2023-05-21T18:08:55.395Z,97805.25
2023-05-21T18:11:22.276Z,97815.13
2023-05-21T18:13:49.368Z,97822.63
2023-05-21T18:16:16.234Z,97813.56
2023-05-21T18:18:42.984Z,97821.00
2023-05-21T18:21:09.942Z,97815.31
2023-05-21T18:23:36.620Z,97829.28
2023-05-21T18:26:03.068Z,97828.66
2023-05-21T18:28:33.065Z,97816.59
2023-05-21T18:31:04.329Z,97821.34
2023-05-21T18:33:31.231Z,97822.03
2023-05-21T18:35:57.663Z,97820.66
2023-05-21T18:38:24.120Z,97821.25
2023-05-21T18:40:50.971Z,97823.59
2023-05-21T18:43:20.681Z,97822.50
2023-05-21T18:45:47.181Z,97826.56
2023-05-21T18:48:28.573Z,97829.50
2023-05-21T18:50:55.314Z,97817.22
2023-05-21T18:53:21.795Z,97829.97
2023-05-21T18:55:48.285Z,97821.91
2023-05-21T18:58:14.721Z,97829.72
2023-05-21T19:08:42.173Z,97840.47
2023-05-21T19:11:08.814Z,97843.44
2023-05-21T19:13:35.669Z,97843.94
2023-05-21T19:16:02.264Z,97843.09
2023-05-21T19:18:32.382Z,97841.47
2023-05-21T19:21:00.243Z,97848.59
2023-05-21T19:23:26.782Z,97848.59
2023-05-21T19:25:53.218Z,97854.16
2023-05-21T19:28:19.726Z,97848.28
2023-05-21T19:30:46.431Z,97858.03
2023-05-21T19:33:13.090Z,97852.09
2023-05-21T19:35:41.474Z,97859.72
2023-05-21T19:38:09.805Z,97854.09
2023-05-21T19:40:36.390Z,97863.50
2023-05-21T19:43:03.537Z,97859.75
2023-05-21T19:45:29.999Z,97861.09
2023-05-21T19:47:56.742Z,97863.22
2023-05-21T19:50:23.566Z,97868.72
2023-05-21T19:52:49.985Z,97870.06
2023-05-21T19:55:19.988Z,97872.63
2023-05-21T19:57:47.211Z,97876.94
2023-05-21T20:00:14.498Z,97872.63
2023-05-21T20:02:41.108Z,97873.28
2023-05-21T20:05:08.230Z,97882.19
2023-05-21T20:07:34.761Z,97878.59
2023-05-21T20:10:01.519Z,97875.75
2023-05-21T20:12:28.003Z,97878.13
2023-05-21T20:14:54.944Z,97878.78
2023-05-21T20:17:21.409Z,97881.84
2023-05-21T20:19:48.059Z,97877.56
2023-05-21T20:22:15.497Z,97881.66
2023-05-21T20:24:42.899Z,97881.59
2023-05-21T20:27:09.693Z,97870.81
2023-05-21T20:29:36.179Z,97875.16
2023-05-21T20:32:02.697Z,97882.59
2023-05-21T20:34:29.670Z,97867.78
2023-05-21T20:36:58.066Z,97881.81
2023-05-21T20:39:27.212Z,97883.88
2023-05-21T20:41:53.964Z,97877.53
2023-05-21T20:44:21.298Z,97873.88
2023-05-21T20:46:48.638Z,97879.34
2023-05-21T20:49:15.232Z,97884.16
2023-05-21T20:51:41.675Z,97872.13
2023-05-21T20:54:09.257Z,97880.63
2023-05-21T20:56:42.079Z,97886.56
2023-05-21T20:59:10.908Z,97878.19
2023-05-21T21:01:38.128Z,97877.94
2023-05-21T21:04:07.675Z,97878.69
2023-05-21T21:06:34.818Z,97882.22
2023-05-21T21:09:01.293Z,97884.22
2023-05-21T21:11:27.872Z,97881.34
2023-05-21T21:13:54.302Z,97883.25
2023-05-21T21:16:20.920Z,97893.00
2023-05-21T21:18:47.466Z,97889.97
2023-05-21T21:21:13.961Z,97880.81
2023-05-21T21:23:40.518Z,97892.94
2023-05-21T21:26:07.318Z,97887.88
2023-05-21T21:28:33.966Z,97889.25
2023-05-21T21:31:00.763Z,97890.50
2023-05-21T21:33:28.405Z,97888.16
2023-05-21T21:35:55.138Z,97889.25
2023-05-21T21:38:22.237Z,97895.66
2023-05-21T21:40:48.833Z,97898.84
2023-05-21T21:43:15.456Z,97893.06
2023-05-21T21:45:42.416Z,97887.13
2023-05-21T21:48:09.000Z,97897.84
2023-05-21T21:50:35.818Z,97898.50
2023-05-21T21:53:03.652Z,97892.78
2023-05-21T21:55:30.305Z,97888.00
2023-05-21T21:57:56.864Z,97893.38
2023-05-21T22:00:26.584Z,97897.88
2023-05-21T22:02:53.795Z,97894.59
2023-05-21T22:05:20.287Z,97890.78
2023-05-21T22:07:46.848Z,97896.47
2023-05-21T22:10:14.923Z,97895.13
2023-05-21T22:12:41.523Z,97893.69
2023-05-21T22:15:08.546Z,97897.44
2023-05-21T22:17:35.078Z,97890.78
2023-05-21T22:20:01.594Z,97898.75
2023-05-21T22:22:28.084Z,97904.69
2023-05-21T22:24:54.588Z,97896.44
2023-05-21T22:27:21.156Z,97893.38
2023-05-21T22:29:47.670Z,97905.91
2023-05-21T22:32:14.276Z,97908.78
2023-05-21T22:34:41.917Z,97905.78
2023-05-21T22:37:08.338Z,97897.88
2023-05-21T22:39:34.754Z,97898.84
2023-05-21T22:42:01.422Z,97904.44
2023-05-21T22:44:27.857Z,97900.84
2023-05-21T22:46:56.404Z,97899.56
2023-05-21T22:49:23.282Z,97903.16
2023-05-21T22:51:51.023Z,97905.25
2023-05-21T22:54:17.565Z,97897.94
2023-05-21T22:56:44.921Z,97896.28
2023-05-21T22:59:11.381Z,97893.81
2023-05-21T23:01:38.323Z,97903.44
2023-05-21T23:04:04.956Z,97910.31
2023-05-21T23:06:31.739Z,97904.19
2023-05-21T23:08:58.206Z,97904.81
2023-05-21T23:11:24.672Z,97897.72
2023-05-21T23:13:51.126Z,97899.03
2023-05-21T23:16:17.620Z,97903.75
2023-05-21T23:18:44.078Z,97900.69
2023-05-21T23:21:10.631Z,97894.13
2023-05-21T23:23:37.128Z,97905.56
2023-05-21T23:26:03.579Z,97897.81
2023-05-21T23:28:30.206Z,97901.38
2023-05-21T23:30:56.987Z,97900.72
2023-05-21T23:33:23.419Z,97908.72
2023-05-21T23:35:50.018Z,97898.34
2023-05-21T23:38:16.633Z,97894.22
2023-05-21T23:40:43.365Z,97901.38
2023-05-21T23:43:10.023Z,97900.75
2023-05-21T23:45:37.103Z,97905.13
2023-05-21T23:48:03.897Z,97903.66
2023-05-21T23:50:30.525Z,97904.44
2023-05-21T23:52:57.040Z,97909.06
2023-05-21T23:55:23.523Z,97904.97
2023-05-21T23:57:49.974Z,97897.88
